Archival Weather

John F Kennedy Intl

New York, New York (KJFK)

Report from: Thursday, September 21, 2023 7:51 AM EDT
Current time: Sunday, February 25, 2024 5:45 PM EST

Current weather – Weather history – Daily summaries
Weather forecast

Temperature15.6°C (60.1°F)
Dew point8.9°C (48.0°F)
Winds 9 kts (4.6 m/s, 10.4 mph) North (360°)
Visibility10 mi. (16.1 km)
Clouds Few clouds 25,000 ft. (7,620 m)
Altimeter30.28 in.Hg (1025 mB)
Relative humidity64 %
Density altitude-168 ft. (-51 m)
Sea-level pressure102.5 kPa (1025 mB, 30.27 in.Hg)
Max temp last 6 hours16.1°C (61.0°F)
Min temp last 6 hours13.9°C (57.0°F)
Remarks System requires maintenance
Automated weather observing station with precipitation discriminator
Pressure rising more quickly
Flight conditions Visual Meteorological Conditions
Raw dataKJFK 211151Z 36009KT 10SM FEW250 16/09 A3028 RMK AO2 SLP252 T01560089 10161 20139 53018 $
An error has occurred. This application may no longer respond until reloaded. Reload 🗙